Time;durP1;ratioP1;P1;durP2;ratioP2;P2;SDS_P1;SDS_P2;PMS_P1;PMS_P2;Temp;Humidity;BMP_temperature;BMP_pressure;BME280_temperature;BME280_humidity;BME280_pressure;Samples;Min_cycle;Max_cycle;Signal;HPM_P1;HPM_P2
2022/12/19 00:01:25;;;;;;;40.23;20.50;;;;;;;-2.76;100.00;100022.69;5167540;27;20200;-78
2022/12/19 00:03:55;;;;;;;43.70;21.47;;;;;;;-2.75;100.00;100022.69;5171381;27;20200;-78
2022/12/19 00:06:25;;;;;;;42.43;21.70;;;;;;;-2.93;100.00;100027.78;5169634;27;20193;-78
2022/12/19 00:08:54;;;;;;;43.23;22.17;;;;;;;-2.95;100.00;100030.38;5174347;27;20216;-78
2022/12/19 00:11:26;;;;;;;44.30;21.67;;;;;;;-2.85;100.00;100022.63;5168750;27;20213;-78
2022/12/19 00:13:56;;;;;;;41.97;21.33;;;;;;;-2.80;100.00;100014.00;5174780;27;20470;-78
2022/12/19 00:16:26;;;;;;;44.37;22.07;;;;;;;-2.75;100.00;100011.44;5168489;27;20242;-78
2022/12/19 00:19:00;;;;;;;44.50;21.60;;;;;;;-2.70;100.00;100004.53;5176323;27;20196;-78
2022/12/19 00:21:30;;;;;;;42.87;21.87;;;;;;;-2.63;100.00;99990.72;5171812;27;20226;-78
2022/12/19 00:24:03;;;;;;;42.03;21.13;;;;;;;-2.74;100.00;100001.06;5173733;27;20257;-78
2022/12/19 00:26:50;;;;;;;44.20;21.83;;;;;;;-2.90;100.00;100007.06;5177846;27;20192;-79
2022/12/19 00:29:20;;;;;;;43.00;21.87;;;;;;;-2.89;100.00;100008.81;5141480;27;20250;-77
2022/12/19 00:31:49;;;;;;;43.73;21.63;;;;;;;-2.72;100.00;100014.91;5166675;27;20230;-78
2022/12/19 00:34:18;;;;;;;42.70;21.23;;;;;;;-2.70;100.00;100005.44;5172015;27;20221;-78
2022/12/19 00:36:46;;;;;;;41.97;20.90;;;;;;;-2.74;100.00;100000.22;5168722;27;20201;-78
2022/12/19 00:39:15;;;;;;;42.67;20.97;;;;;;;-2.68;100.00;100000.25;5119320;27;20249;-78
2022/12/19 00:41:43;;;;;;;42.57;21.57;;;;;;;-2.71;100.00;99995.88;5172982;27;20188;-78
2022/12/19 00:44:14;;;;;;;41.83;20.50;;;;;;;-2.69;100.00;100003.69;5123786;27;20678;-78
2022/12/19 00:46:42;;;;;;;41.40;21.00;;;;;;;-2.63;100.00;100006.28;5168481;27;20192;-79
2022/12/19 00:49:20;;;;;;;41.77;21.20;;;;;;;-2.62;100.00;100015.78;5179022;27;20203;-78
2022/12/19 00:51:50;;;;;;;43.87;22.13;;;;;;;-2.68;100.00;100014.06;5180988;27;20213;-78
2022/12/19 00:54:19;;;;;;;47.23;22.00;;;;;;;-2.71;100.00;100014.03;5173072;27;20193;-79
2022/12/19 00:56:47;;;;;;;50.67;22.13;;;;;;;-2.74;100.00;100016.63;5168801;27;20193;-79
2022/12/19 00:59:20;;;;;;;46.10;21.47;;;;;;;-2.67;100.00;100020.13;5176351;27;20230;-79
2022/12/19 01:01:53;;;;;;;44.97;21.07;;;;;;;-2.69;100.00;100024.44;5174775;27;20189;-79
2022/12/19 01:04:24;;;;;;;46.93;22.73;;;;;;;-2.69;100.00;100022.72;5173125;27;20643;-78
2022/12/19 01:06:56;;;;;;;43.97;22.47;;;;;;;-2.87;100.00;100017.44;5175103;27;20201;-79
2022/12/19 01:09:31;;;;;;;44.90;21.90;;;;;;;-2.66;100.00;100020.13;5172293;27;20185;-78
2022/12/19 01:14:47;;;;;;;45.83;22.77;;;;;;;-2.78;100.00;100011.44;5172530;27;20224;-78
2022/12/19 01:17:16;;;;;;;42.60;22.23;;;;;;;-2.77;100.00;100013.16;5120647;27;20221;-78
2022/12/19 01:19:46;;;;;;;48.17;22.53;;;;;;;-2.79;100.00;100026.13;5173930;27;20181;-78
2022/12/19 01:22:15;;;;;;;41.60;21.87;;;;;;;-2.70;100.00;100028.75;5174248;27;20193;-79
2022/12/19 01:24:43;;;;;;;48.00;22.67;;;;;;;-2.79;100.00;100025.25;5177011;27;20217;-78
2022/12/19 01:27:11;;;;;;;42.73;21.93;;;;;;;-2.74;100.00;100031.31;5173749;27;20193;-78
2022/12/19 01:29:40;;;;;;;49.60;22.93;;;;;;;-2.61;100.00;100028.78;5172195;27;20200;-79
2022/12/19 01:32:22;;;;;;;46.47;22.30;;;;;;;-2.63;100.00;100011.47;5173939;27;20221;-78
2022/12/19 01:34:50;;;;;;;45.60;22.70;;;;;;;-2.67;100.00;100013.19;5169889;27;20245;-78
2022/12/19 01:37:19;;;;;;;49.73;24.47;;;;;;;-2.74;100.00;100005.38;5173562;27;20197;-78
2022/12/19 01:39:48;;;;;;;42.87;22.47;;;;;;;-2.51;100.00;100003.75;5173662;27;20193;-78
2022/12/19 01:42:18;;;;;;;50.03;22.93;;;;;;;-2.56;100.00;100009.78;5176594;27;20185;-78
2022/12/19 01:45:26;;;;;;;42.73;22.83;;;;;;;-2.59;100.00;100005.44;5176025;27;20271;-78
2022/12/19 01:48:14;;;;;;;47.63;22.87;;;;;;;-2.67;100.00;100004.56;5140686;27;20193;-78
2022/12/19 01:50:50;;;;;;;43.30;23.37;;;;;;;-2.65;100.00;100008.88;5170517;27;20249;-78
2022/12/19 01:53:34;;;;;;;45.13;22.97;;;;;;;-2.57;100.00;100013.22;5170533;27;20268;-78
2022/12/19 01:56:18;;;;;;;43.60;23.17;;;;;;;-2.64;100.00;100004.56;5178388;27;20193;-78
2022/12/19 01:58:47;;;;;;;47.87;22.93;;;;;;;-2.58;100.00;99994.22;5120774;27;20501;-78
2022/12/19 02:01:19;;;;;;;46.93;23.63;;;;;;;-2.69;100.00;99982.97;5169288;27;20190;-78
2022/12/19 02:03:50;;;;;;;45.27;23.20;;;;;;;-2.74;100.00;99982.94;5170533;27;20257;-78
2022/12/19 02:06:19;;;;;;;44.87;22.40;;;;;;;-2.67;100.00;99976.91;5170397;27;20388;-79
2022/12/19 02:08:49;;;;;;;46.17;23.40;;;;;;;-2.63;100.00;99980.34;5168614;27;20185;-78
2022/12/19 02:11:18;;;;;;;48.97;23.70;;;;;;;-2.53;100.00;99987.28;5129750;27;20195;-78
2022/12/19 02:13:48;;;;;;;49.43;24.27;;;;;;;-2.55;100.00;99976.06;5128158;27;20265;-78
2022/12/19 02:16:29;;;;;;;50.57;24.50;;;;;;;-2.53;100.00;99973.47;5131035;27;20190;-79
2022/12/19 02:19:15;;;;;;;44.73;21.73;;;;;;;-2.60;100.00;99964.84;5130046;27;20212;-79
2022/12/19 02:21:53;;;;;;;48.80;23.53;;;;;;;-2.63;100.00;99970.00;5126969;27;20277;-79
2022/12/19 02:25:00;;;;;;;49.00;23.13;;;;;;;-2.61;100.00;99976.94;5129583;27;20224;-79
2022/12/19 02:28:25;;;;;;;46.23;22.73;;;;;;;-2.56;100.00;99969.16;5117241;27;20194;-79
2022/12/19 02:31:07;;;;;;;44.57;21.43;;;;;;;-2.64;100.00;99968.25;5098484;27;20194;-78
2022/12/19 02:33:53;;;;;;;44.97;23.80;;;;;;;-2.65;100.00;99962.22;5130225;27;20190;-78
2022/12/19 02:36:29;;;;;;;45.03;22.60;;;;;;;-2.55;100.00;99954.44;5157891;27;20204;-78
2022/12/19 02:39:08;;;;;;;51.47;23.73;;;;;;;-2.52;100.00;99955.31;5169631;27;20200;-78
2022/12/19 02:41:43;;;;;;;47.10;23.67;;;;;;;-2.52;100.00;99947.53;5168197;27;20253;-78
2022/12/19 02:44:18;;;;;;;46.43;22.07;;;;;;;-2.51;100.00;99941.50;5172438;27;20199;-79
2022/12/19 02:46:50;;;;;;;42.23;21.57;;;;;;;-2.51;100.00;99936.31;5173953;27;20195;-78
2022/12/19 02:49:19;;;;;;;43.10;22.03;;;;;;;-2.47;100.00;99927.66;5167345;27;20189;-78
2022/12/19 02:51:57;;;;;;;44.60;21.87;;;;;;;-2.50;100.00;99926.81;5167876;27;20227;-78
2022/12/19 02:54:26;;;;;;;43.30;22.20;;;;;;;-2.53;100.00;99917.28;5175137;27;20197;-78
2022/12/19 02:57:00;;;;;;;40.37;20.90;;;;;;;-2.44;100.00;99925.06;5169851;27;20189;-78
2022/12/19 02:59:44;;;;;;;44.87;23.03;;;;;;;-2.39;100.00;99918.16;5134874;27;20320;-78
2022/12/19 03:02:27;;;;;;;41.10;21.17;;;;;;;-2.34;100.00;99915.56;5165572;27;20261;-79
2022/12/19 03:05:00;;;;;;;44.40;22.40;;;;;;;-2.37;100.00;99916.44;5170566;27;20636;-78
2022/12/19 03:07:36;;;;;;;40.63;21.20;;;;;;;-2.30;100.00;99912.13;5171055;27;20215;-79
2022/12/19 03:10:13;;;;;;;44.67;22.20;;;;;;;-2.37;100.00;99919.03;5167799;27;20193;-78
2022/12/19 03:12:50;;;;;;;47.03;23.60;;;;;;;-2.40;100.00;99921.63;5172092;27;20260;-78
2022/12/19 03:15:20;;;;;;;42.90;21.83;;;;;;;-2.36;100.00;99918.16;5167836;27;20252;-79
2022/12/19 03:18:02;;;;;;;48.20;22.03;;;;;;;-2.37;100.00;99919.03;5170760;27;20189;-78
2022/12/19 03:20:43;;;;;;;46.37;23.07;;;;;;;-2.38;100.00;99926.81;5166598;27;20196;-78
2022/12/19 03:23:13;;;;;;;45.83;22.63;;;;;;;-2.28;100.00;99914.72;5121779;27;20197;-79
2022/12/19 03:25:46;;;;;;;38.43;20.80;;;;;;;-2.25;100.00;99894.81;5172001;27;20185;-78
2022/12/19 03:28:21;;;;;;;47.77;22.23;;;;;;;-2.19;100.00;99917.31;5171859;27;20219;-78
2022/12/19 03:30:51;;;;;;;43.07;21.70;;;;;;;-2.08;100.00;99916.44;5169757;27;20200;-78
2022/12/19 03:33:23;;;;;;;41.07;21.60;;;;;;;-2.19;100.00;99905.19;5174607;27;20212;-79
2022/12/19 03:35:54;;;;;;;49.03;23.50;;;;;;;-2.22;100.00;99909.50;5107592;28;20217;-78
2022/12/19 03:38:23;;;;;;;48.70;24.30;;;;;;;-2.34;100.00;99903.44;5110353;28;20194;-78
2022/12/19 03:40:54;;;;;;;47.03;23.27;;;;;;;-2.39;100.00;99904.34;5110647;28;20197;-78
2022/12/19 03:43:24;;;;;;;47.30;25.30;;;;;;;-2.33;100.00;99907.78;5106742;28;20232;-78
2022/12/19 03:45:58;;;;;;;45.20;22.80;;;;;;;-2.39;100.00;99905.19;5108494;28;20207;-78
2022/12/19 03:48:33;;;;;;;49.47;22.97;;;;;;;-2.29;100.00;99911.25;5049878;28;20321;-78
2022/12/19 03:51:11;;;;;;;44.53;22.67;;;;;;;-2.23;100.00;99910.38;5043622;28;20242;-78
2022/12/19 03:53:48;;;;;;;43.57;23.57;;;;;;;-2.30;100.00;99904.34;5066269;28;20238;-78
2022/12/19 03:56:26;;;;;;;43.43;23.03;;;;;;;-2.26;100.00;99900.88;5106358;28;20194;-78
2022/12/19 03:59:00;;;;;;;52.30;24.53;;;;;;;-2.25;100.00;99892.22;5108297;28;20194;-78
2022/12/19 04:01:32;;;;;;;43.03;23.47;;;;;;;-2.26;100.00;99897.41;5079362;28;20537;-78
2022/12/19 04:04:03;;;;;;;50.40;23.57;;;;;;;-2.22;100.00;99888.75;5104041;28;20195;-79
2022/12/19 04:06:34;;;;;;;46.90;23.43;;;;;;;-2.20;100.00;99892.22;5111331;28;20274;-80
2022/12/19 04:09:04;;;;;;;47.17;22.63;;;;;;;-2.22;100.00;99892.22;5107119;28;20267;-78
2022/12/19 04:11:38;;;;;;;48.03;23.63;;;;;;;-2.25;100.00;99894.81;5111534;28;20194;-78
2022/12/19 04:14:10;;;;;;;44.43;22.60;;;;;;;-2.15;100.00;99888.75;5060940;28;20214;-78
2022/12/19 04:16:44;;;;;;;47.57;24.67;;;;;;;-2.09;100.00;99893.06;5112665;28;20187;-78
2022/12/19 04:19:20;;;;;;;50.40;25.57;;;;;;;-2.18;100.00;99880.97;5131452;27;20189;-78
2022/12/19 04:21:55;;;;;;;50.40;23.73;;;;;;;-2.16;100.00;99870.59;5175804;27;20233;-78
2022/12/19 04:24:29;;;;;;;48.43;23.53;;;;;;;-2.19;100.00;99871.47;5171687;27;20226;-78
2022/12/19 04:26:59;;;;;;;49.57;25.93;;;;;;;-2.24;100.00;99864.53;5169842;27;20196;-78
2022/12/19 04:29:34;;;;;;;49.77;24.80;;;;;;;-2.20;100.00;99853.31;5170903;27;20205;-78
2022/12/19 04:32:05;;;;;;;52.00;26.17;;;;;;;-2.36;100.00;99844.66;5170508;27;20241;-78
2022/12/19 04:34:37;;;;;;;49.87;22.97;;;;;;;-2.21;100.00;99852.44;5109339;28;20226;-78
2022/12/19 04:37:11;;;;;;;50.27;25.67;;;;;;;-2.20;100.00;99851.56;5109121;28;20251;-78
2022/12/19 04:39:39;;;;;;;51.33;25.63;;;;;;;-2.21;100.00;99854.19;5108310;28;20207;-78
2022/12/19 04:42:08;;;;;;;45.90;24.07;;;;;;;-2.14;100.00;99858.47;5105725;28;20191;-78
2022/12/19 04:44:37;;;;;;;51.83;25.47;;;;;;;-2.11;100.00;99861.09;5105612;28;20191;-77
2022/12/19 04:47:07;;;;;;;46.33;24.47;;;;;;;-2.09;100.00;99846.38;5104009;28;20190;-78
2022/12/19 04:49:37;;;;;;;52.90;25.70;;;;;;;-2.11;100.00;99859.34;5110913;28;20199;-78
2022/12/19 04:52:06;;;;;;;47.23;24.63;;;;;;;-2.12;100.00;99849.84;5072455;28;20202;-78
2022/12/19 04:54:35;;;;;;;50.70;24.77;;;;;;;-2.10;100.00;99850.69;5106084;28;20218;-77
2022/12/19 04:57:04;;;;;;;51.73;25.07;;;;;;;-2.05;100.00;99841.16;5107850;28;20221;-78
2022/12/19 04:59:33;;;;;;;51.33;25.33;;;;;;;-2.03;100.00;99854.13;5150080;27;20200;-77
2022/12/19 05:02:01;;;;;;;47.57;23.60;;;;;;;-1.93;100.00;99857.56;5168894;27;20189;-77
2022/12/19 05:04:30;;;;;;;47.63;25.10;;;;;;;-1.85;100.00;99864.47;5085910;28;20229;-78
2022/12/19 05:07:00;;;;;;;46.50;24.73;;;;;;;-1.89;100.00;99861.91;5089731;28;20203;-78
2022/12/19 05:09:29;;;;;;;50.37;26.33;;;;;;;-2.04;100.00;99855.00;5087975;28;20245;-77
2022/12/19 05:11:58;;;;;;;53.10;25.27;;;;;;;-1.93;100.00;99848.06;5087950;28;20196;-77
2022/12/19 05:14:27;;;;;;;50.30;25.10;;;;;;;-1.84;100.00;99857.53;5089692;28;20243;-77
2022/12/19 05:16:56;;;;;;;57.07;26.47;;;;;;;-1.88;100.00;99850.63;5082815;28;20199;-77
2022/12/19 05:19:29;;;;;;;48.23;23.80;;;;;;;-1.87;100.00;99850.63;5092078;28;20188;-77
2022/12/19 05:21:59;;;;;;;50.53;24.97;;;;;;;-1.86;100.00;99838.50;5101083;27;20220;-77
2022/12/19 05:24:28;;;;;;;50.83;25.47;;;;;;;-1.95;100.00;99834.22;5169674;27;20217;-77
2022/12/19 05:26:56;;;;;;;51.20;25.30;;;;;;;-1.94;100.00;99833.34;5132953;27;20265;-77
2022/12/19 05:29:25;;;;;;;49.63;25.63;;;;;;;-1.93;100.00;99844.59;5124526;27;20187;-77
2022/12/19 05:31:54;;;;;;;58.90;27.43;;;;;;;-1.96;100.00;99837.69;5123150;27;20190;-77
2022/12/19 05:34:23;;;;;;;49.20;25.23;;;;;;;-1.94;100.00;99840.25;5127600;27;20214;-78
2022/12/19 05:36:52;;;;;;;51.53;26.30;;;;;;;-1.93;100.00;99848.06;5130356;27;20233;-77
2022/12/19 05:39:25;;;;;;;53.87;26.33;;;;;;;-1.90;100.00;99840.25;5125172;27;20212;-78
2022/12/19 05:41:54;;;;;;;59.23;26.50;;;;;;;-1.88;100.00;99848.91;5123557;27;20203;-77
2022/12/19 05:44:22;;;;;;;53.70;26.33;;;;;;;-1.92;100.00;99831.63;5135568;27;20185;-77
2022/12/19 05:46:53;;;;;;;52.30;25.90;;;;;;;-1.91;100.00;99846.34;5163685;27;20284;-78
2022/12/19 05:49:21;;;;;;;55.33;26.20;;;;;;;-1.89;100.00;99846.31;5165054;27;20189;-79
2022/12/19 05:51:51;;;;;;;56.43;27.20;;;;;;;-1.92;100.00;99854.13;5171120;27;20651;-78
2022/12/19 05:54:19;;;;;;;54.80;26.97;;;;;;;-1.88;100.00;99856.69;5168662;27;20216;-78
2022/12/19 05:56:50;;;;;;;57.03;28.47;;;;;;;-1.85;100.00;99855.81;5170393;27;20185;-77
2022/12/19 05:59:19;;;;;;;59.90;28.67;;;;;;;-1.80;100.00;99851.50;5166575;27;20648;-78
2022/12/19 06:01:49;;;;;;;53.93;27.17;;;;;;;-1.74;100.00;99848.84;5169302;27;20240;-77
2022/12/19 06:04:18;;;;;;;60.73;29.83;;;;;;;-1.86;100.00;99854.94;5161672;27;20268;-78
2022/12/19 06:06:46;;;;;;;56.80;27.03;;;;;;;-1.80;100.00;99862.72;5164300;27;20193;-78
2022/12/19 06:09:15;;;;;;;58.00;28.23;;;;;;;-1.73;100.00;99854.06;5163427;27;20204;-78
2022/12/19 06:11:44;;;;;;;57.63;26.70;;;;;;;-1.78;100.00;99860.13;5170773;27;20189;-77
2022/12/19 06:14:14;;;;;;;53.70;26.73;;;;;;;-1.71;100.00;99860.97;5092467;28;20273;-77
2022/12/19 06:16:43;;;;;;;59.17;27.33;;;;;;;-1.66;100.00;99862.69;5037853;28;20202;-77
2022/12/19 06:19:11;;;;;;;56.40;29.30;;;;;;;-1.73;100.00;99867.03;5084205;28;20195;-77
2022/12/19 06:21:43;;;;;;;57.17;27.13;;;;;;;-1.68;100.00;99864.44;5081009;28;20635;-77
2022/12/19 06:24:15;;;;;;;54.87;28.53;;;;;;;-1.69;100.00;99880.00;5086754;28;20765;-78
2022/12/19 06:26:46;;;;;;;57.93;28.00;;;;;;;-1.57;100.00;99870.44;5085247;28;20229;-77
2022/12/19 06:29:16;;;;;;;55.43;28.67;;;;;;;-1.67;100.00;99867.88;5083052;28;20627;-77
2022/12/19 06:32:00;;;;;;;58.37;28.50;;;;;;;-1.61;100.00;99862.69;5115327;27;20225;-77
2022/12/19 06:34:28;;;;;;;59.00;28.57;;;;;;;-1.58;100.00;99858.31;5165279;27;20220;-77
2022/12/19 06:37:19;;;;;;;57.50;28.30;;;;;;;-1.56;100.00;99848.78;5175502;27;20210;-77
2022/12/19 06:39:47;;;;;;;58.67;28.10;;;;;;;-1.53;100.00;99861.78;5165673;27;20197;-77
2022/12/19 06:42:24;;;;;;;58.57;27.83;;;;;;;-1.58;100.00;99871.31;5163191;27;20203;-78
2022/12/19 06:44:55;;;;;;;60.90;28.63;;;;;;;-1.54;100.00;99875.66;5170045;27;20432;-77
2022/12/19 06:47:24;;;;;;;59.73;31.37;;;;;;;-1.54;100.00;99883.44;5087770;28;20293;-77
2022/12/19 06:49:53;;;;;;;55.30;27.27;;;;;;;-1.51;100.00;99873.03;5090324;28;20206;-77
2022/12/19 06:52:22;;;;;;;62.13;29.03;;;;;;;-1.51;100.00;99866.97;5086079;28;20198;-77
2022/12/19 06:54:51;;;;;;;60.83;29.53;;;;;;;-1.57;100.00;99862.66;5082852;28;20288;-77
2022/12/19 06:57:21;;;;;;;61.13;27.60;;;;;;;-1.52;100.00;99875.63;5027172;28;20267;-78
2022/12/19 06:59:49;;;;;;;57.33;29.40;;;;;;;-1.42;100.00;99863.47;5021952;28;20255;-77
2022/12/19 07:02:28;;;;;;;60.73;28.33;;;;;;;-1.52;100.00;99862.66;5024349;28;20200;-77
2022/12/19 07:05:02;;;;;;;58.37;28.40;;;;;;;-1.44;100.00;99855.69;5026682;28;20197;-77
2022/12/19 07:07:31;;;;;;;59.40;30.67;;;;;;;-1.44;100.00;99863.47;5006214;28;20626;-77
2022/12/19 07:10:01;;;;;;;66.20;32.83;;;;;;;-1.38;100.00;99863.44;5002820;28;20321;-77
2022/12/19 07:12:32;;;;;;;60.73;30.93;;;;;;;-1.41;100.00;99871.25;5030301;28;20228;-77
2022/12/19 07:15:00;;;;;;;60.63;28.13;;;;;;;-1.49;100.00;99871.28;5062726;28;20845;-77
2022/12/19 07:17:31;;;;;;;55.20;27.90;;;;;;;-1.50;100.00;99885.13;5007816;28;20194;-77
2022/12/19 07:20:02;;;;;;;69.73;32.27;;;;;;;-1.42;100.00;99882.53;5004217;28;20202;-78
2022/12/19 07:22:34;;;;;;;59.50;28.83;;;;;;;-1.39;100.00;99884.22;5003955;28;20784;-78
2022/12/19 07:25:04;;;;;;;61.53;30.40;;;;;;;-1.41;100.00;99880.78;4961789;28;20226;-77
2022/12/19 07:27:37;;;;;;;60.13;30.17;;;;;;;-1.41;100.00;99897.22;4985596;28;20195;-77
2022/12/19 07:30:06;;;;;;;58.47;30.73;;;;;;;-1.46;100.00;99881.66;4944574;28;20281;-77
2022/12/19 07:32:38;;;;;;;62.30;31.07;;;;;;;-1.41;100.00;99865.19;4949522;28;20189;-77
2022/12/19 07:35:07;;;;;;;61.10;30.80;;;;;;;-1.43;100.00;99873.00;4973865;28;20774;-78
2022/12/19 07:37:36;;;;;;;56.47;28.63;;;;;;;-1.43;100.00;99872.13;5026144;28;20227;-77
2022/12/19 07:40:06;;;;;;;57.20;27.23;;;;;;;-1.42;100.00;99863.47;5028971;28;20192;-77
2022/12/19 07:42:35;;;;;;;58.77;28.23;;;;;;;-1.36;100.00;99868.63;5034182;28;20188;-77
2022/12/19 07:45:03;;;;;;;60.57;30.30;;;;;;;-1.37;100.00;99867.75;5068920;28;20196;-77
2022/12/19 07:47:32;;;;;;;59.03;28.60;;;;;;;-1.42;100.00;99873.88;5074508;28;20191;-76
2022/12/19 07:50:06;;;;;;;59.03;28.50;;;;;;;-1.38;100.00;99868.63;5109550;28;20194;-76
2022/12/19 07:52:35;;;;;;;54.17;27.87;;;;;;;-1.36;100.00;99866.88;5153355;27;20306;-79
2022/12/19 07:55:04;;;;;;;54.63;28.53;;;;;;;-1.29;100.00;99878.97;5168700;27;20209;-79
2022/12/19 07:57:34;;;;;;;55.53;27.83;;;;;;;-1.35;100.00;99885.94;5169151;27;20542;-77
2022/12/19 08:00:05;;;;;;;57.97;28.30;;;;;;;-1.35;100.00;99886.84;5168966;27;20200;-77
2022/12/19 08:02:35;;;;;;;62.00;28.90;;;;;;;-1.27;100.00;99892.81;5170521;27;20185;-77
2022/12/19 08:05:10;;;;;;;58.47;28.50;;;;;;;-1.18;100.00;99890.19;5072130;28;20192;-77
2022/12/19 08:07:40;;;;;;;56.60;27.70;;;;;;;-1.16;100.00;99893.66;5088959;28;20202;-78
2022/12/19 08:10:11;;;;;;;62.33;29.33;;;;;;;-1.21;100.00;99891.94;5083629;28;20290;-78
2022/12/19 08:12:40;;;;;;;59.90;29.70;;;;;;;-1.14;100.00;99898.00;5087179;28;20233;-77
2022/12/19 08:15:10;;;;;;;61.00;30.73;;;;;;;-1.16;100.00;99903.16;5082842;28;20242;-77
2022/12/19 08:17:39;;;;;;;61.47;30.67;;;;;;;-1.22;100.00;99893.69;5088256;28;20196;-77
2022/12/19 08:20:16;;;;;;;63.60;30.10;;;;;;;-1.05;100.00;99892.75;5085738;28;20276;-78
2022/12/19 08:22:45;;;;;;;58.13;28.30;;;;;;;-1.07;100.00;99895.31;5109714;27;20257;-78
2022/12/19 08:25:13;;;;;;;63.13;29.30;;;;;;;-1.00;100.00;99906.56;5175061;27;20233;-78
2022/12/19 08:27:44;;;;;;;62.37;29.83;;;;;;;-1.01;100.00;99891.84;5174854;27;20695;-78
2022/12/19 08:30:14;;;;;;;57.60;28.53;;;;;;;-0.99;100.00;99885.75;5112404;28;20207;-78
2022/12/19 08:32:44;;;;;;;59.13;30.33;;;;;;;-1.02;100.00;99890.13;5110452;28;20202;-78
2022/12/19 08:35:14;;;;;;;61.67;28.83;;;;;;;-0.97;100.00;99889.22;5112812;28;20241;-78
2022/12/19 08:37:43;;;;;;;58.63;31.00;;;;;;;-1.05;100.00;99892.75;5108651;28;20199;-78
2022/12/19 08:40:13;;;;;;;61.20;30.03;;;;;;;-0.96;100.00;99888.38;5109290;28;20696;-78
2022/12/19 08:42:44;;;;;;;62.03;29.30;;;;;;;-0.95;100.00;99884.88;5107475;28;20203;-78
2022/12/19 08:45:16;;;;;;;61.63;29.67;;;;;;;-0.92;100.00;99891.78;5105987;28;20191;-78
2022/12/19 08:47:44;;;;;;;64.37;29.80;;;;;;;-0.92;100.00;99890.06;5103195;28;20382;-78
2022/12/19 08:50:15;;;;;;;60.53;29.27;;;;;;;-0.78;100.00;99879.56;5028998;28;20260;-79
2022/12/19 08:52:46;;;;;;;64.23;29.60;;;;;;;-0.88;100.00;99877.91;5025240;28;20232;-79
2022/12/19 08:55:16;;;;;;;60.87;29.80;;;;;;;-0.85;100.00;99869.22;5070287;28;20211;-78
2022/12/19 08:57:45;;;;;;;61.00;30.10;;;;;;;-0.74;100.00;99875.22;5084452;28;20203;-79
2022/12/19 09:00:14;;;;;;;63.03;29.80;;;;;;;-0.74;100.00;99870.03;5044386;28;20193;-79
2022/12/19 09:02:44;;;;;;;62.77;30.43;;;;;;;-0.64;100.00;99869.94;5047839;28;20311;-78
2022/12/19 09:05:16;;;;;;;61.23;29.80;;;;;;;-0.65;100.00;99872.56;5049723;28;20201;-78
2022/12/19 09:08:05;;;;;;;59.43;29.57;;;;;;;-0.57;100.00;99868.16;5052445;28;20221;-79
2022/12/19 09:10:36;;;;;;;61.50;30.50;;;;;;;-0.52;100.00;99873.31;5044554;28;20197;-78
2022/12/19 09:13:07;;;;;;;61.33;30.10;;;;;;;-0.49;100.00;99876.75;5048692;28;20620;-79
2022/12/19 09:15:36;;;;;;;66.07;30.33;;;;;;;-0.47;100.00;99885.44;5106728;27;20218;-78
2022/12/19 09:18:07;;;;;;;62.70;29.67;;;;;;;-0.51;100.00;99883.72;5149001;27;20185;-78
2022/12/19 09:20:37;;;;;;;63.90;29.20;;;;;;;-0.51;100.00;99885.44;5161624;27;20223;-78
2022/12/19 09:23:07;;;;;;;65.07;30.30;;;;;;;-0.42;100.00;99891.44;5173693;27;20193;-80
2022/12/19 09:25:35;;;;;;;54.47;27.43;;;;;;;-0.36;100.00;99883.59;5171482;27;20185;-78
2022/12/19 09:28:04;;;;;;;59.40;28.97;;;;;;;-0.36;100.00;99875.78;5172038;27;20201;-79
2022/12/19 09:30:57;;;;;;;61.23;30.27;;;;;;;-0.22;100.00;99895.63;5176031;27;20203;-79
2022/12/19 09:33:26;;;;;;;61.53;29.90;;;;;;;-0.28;100.00;99891.34;5170883;27;20209;-78
2022/12/19 09:35:57;;;;;;;60.70;30.90;;;;;;;-0.26;100.00;99891.34;5107218;28;20218;-78
2022/12/19 09:38:28;;;;;;;55.47;28.43;;;;;;;-0.27;100.00;99880.06;5105879;28;20240;-78
2022/12/19 09:41:27;;;;;;;60.97;29.97;;;;;;;-0.21;100.00;99886.94;5104900;28;20222;-78
2022/12/19 09:44:09;;;;;;;63.73;31.17;;;;;;;-0.24;100.00;99868.75;5100717;28;20199;-78
2022/12/19 09:46:47;;;;;;;60.70;30.57;;;;;;;-0.25;100.00;99857.47;5008319;28;20703;-78
2022/12/19 09:49:22;;;;;;;57.00;29.23;;;;;;;-0.30;100.00;99852.31;5007845;28;20194;-78
2022/12/19 09:51:59;;;;;;;55.97;28.47;;;;;;;-0.20;100.00;99840.06;4987789;28;20199;-78
2022/12/19 09:54:36;;;;;;;69.57;32.93;;;;;;;-0.15;100.00;99846.09;5001867;28;20198;-78
2022/12/19 09:57:11;;;;;;;65.27;32.00;;;;;;;-0.21;100.00;99842.69;5005533;28;20300;-78
2022/12/19 09:59:44;;;;;;;73.63;39.33;;;;;;;-0.31;100.00;99831.50;5008460;28;20190;-78
2022/12/19 10:02:37;;;;;;;63.10;29.80;;;;;;;-0.16;100.00;99828.75;5009053;28;20191;-77
2022/12/19 10:05:14;;;;;;;67.17;32.90;;;;;;;-0.15;100.00;99840.03;5079557;27;20199;-77
2022/12/19 10:08:17;;;;;;;62.23;31.17;;;;;;;-0.12;100.00;99848.66;5132273;27;20198;-79
2022/12/19 10:11:00;;;;;;;65.87;30.67;;;;;;;-0.12;100.00;99842.59;5162527;27;20196;-79
2022/12/19 10:14:06;;;;;;;63.13;30.77;;;;;;;-0.11;100.00;99847.78;5176122;27;20188;-78
2022/12/19 10:16:49;;;;;;;66.50;32.73;;;;;;;-0.09;100.00;99851.25;5167341;27;20265;-79
2022/12/19 10:19:46;;;;;;;58.97;29.87;;;;;;;-0.02;100.00;99849.44;5175875;27;20203;-79
2022/12/19 10:22:24;;;;;;;64.20;32.67;;;;;;;-0.01;100.00;99835.53;5173719;27;20704;-77
2022/12/19 10:25:25;;;;;;;58.83;29.73;;;;;;;0.06;100.00;99837.22;5171408;27;20220;-77
2022/12/19 10:28:02;;;;;;;60.23;29.90;;;;;;;0.10;100.00;99841.53;5167987;27;20193;-78
2022/12/19 10:30:37;;;;;;;57.53;29.83;;;;;;;0.05;100.00;99832.88;5083807;28;20307;-78
2022/12/19 10:33:16;;;;;;;58.87;29.50;;;;;;;0.13;100.00;99817.19;5089149;28;20237;-77
2022/12/19 10:35:55;;;;;;;57.97;30.87;;;;;;;0.02;100.00;99824.25;5083949;28;20183;-78
2022/12/19 10:38:34;;;;;;;63.40;29.33;;;;;;;0.03;100.00;99811.22;5053641;28;20274;-78
2022/12/19 10:41:24;;;;;;;51.83;28.03;;;;;;;0.07;100.00;99819.84;5089284;28;20199;-77
2022/12/19 10:44:01;;;;;;;64.63;30.90;;;;;;;0.21;100.00;99824.03;5086806;28;20561;-78
2022/12/19 10:46:38;;;;;;;61.40;30.30;;;;;;;0.13;100.00;99833.66;5085552;28;20202;-79
2022/12/19 10:49:13;;;;;;;68.90;33.77;;;;;;;0.19;100.00;99824.91;5142087;27;20203;-79
2022/12/19 10:51:57;;;;;;;66.67;33.83;;;;;;;0.27;100.00;99821.34;5169166;27;20193;-79
2022/12/19 10:54:39;;;;;;;59.13;30.20;;;;;;;0.26;100.00;99819.63;5168948;27;20181;-79
2022/12/19 10:57:25;;;;;;;55.30;28.40;;;;;;;0.29;100.00;99823.94;5172805;27;20663;-79
2022/12/19 11:00:06;;;;;;;63.20;30.27;;;;;;;0.27;100.00;99816.13;5163985;27;20189;-79
2022/12/19 11:02:41;;;;;;;59.80;27.97;;;;;;;0.29;100.00;99816.13;5169920;27;20318;-79
2022/12/19 11:05:25;;;;;;;57.20;29.53;;;;;;;0.30;100.00;99817.00;5105658;28;20277;-79
2022/12/19 11:08:02;;;;;;;64.03;30.23;;;;;;;0.37;100.00;99803.00;5107954;28;20703;-80
2022/12/19 11:10:39;;;;;;;60.63;30.33;;;;;;;0.38;100.00;99805.56;5098981;28;20198;-79
2022/12/19 11:13:41;;;;;;;60.13;28.57;;;;;;;0.38;100.00;99802.09;5111540;28;20207;-79
2022/12/19 11:16:37;;;;;;;67.97;30.80;;;;;;;0.35;100.00;99792.59;5110040;28;20305;-80
2022/12/19 11:19:31;;;;;;;59.80;29.87;;;;;;;0.41;100.00;99791.66;5110926;28;20276;-79
2022/12/19 11:22:25;;;;;;;66.73;30.97;;;;;;;0.44;100.00;99796.81;5115127;27;20286;-79
2022/12/19 11:25:23;;;;;;;59.87;29.93;;;;;;;0.50;100.00;99791.56;5090098;28;20306;-79
2022/12/19 11:28:18;;;;;;;65.20;33.77;;;;;;;0.34;100.00;99785.66;5010532;28;20198;-79
2022/12/19 11:31:16;;;;;;;67.73;32.47;;;;;;;0.30;100.00;99780.53;5009570;28;20236;-79
2022/12/19 11:34:14;;;;;;;62.20;31.63;;;;;;;0.37;100.00;99772.59;4932790;29;20205;-79
2022/12/19 11:36:49;;;;;;;66.93;30.83;;;;;;;0.47;100.00;99768.97;4930314;29;20264;-79
2022/12/19 11:39:26;;;;;;;60.53;31.07;;;;;;;0.56;100.00;99755.81;4928299;29;20315;-78
2022/12/19 11:42:02;;;;;;;59.60;30.97;;;;;;;0.54;100.00;99754.13;4913360;28;20395;-79
2022/12/19 11:44:36;;;;;;;59.67;30.67;;;;;;;0.60;100.00;99750.59;4969752;28;20203;-79